sensor_id;sensor_type;location;lat;lon;timestamp;temperature;humidity
40660;DHT22;26753;45.544;9.232;2023-02-11T10:19:33;10.00;92.60
40660;DHT22;26753;45.544;9.232;2023-02-11T10:25:00;8.40;91.10
40660;DHT22;26753;45.544;9.232;2023-02-11T10:27:55;11.20;91.80
40660;DHT22;26753;45.544;9.232;2023-02-11T10:42:36;11.00;86.50
40660;DHT22;26753;45.544;9.232;2023-02-11T10:48:52;10.10;83.20
40660;DHT22;26753;45.544;9.232;2023-02-11T10:50:47;11.20;83.30
40660;DHT22;26753;45.544;9.232;2023-02-11T10:53:31;12.90;83.10
40660;DHT22;26753;45.544;9.232;2023-02-11T10:56:00;12.70;81.90
40660;DHT22;26753;45.544;9.232;2023-02-11T10:58:52;10.70;80.10
40660;DHT22;26753;45.544;9.232;2023-02-11T11:01:24;11.40;79.00
40660;DHT22;26753;45.544;9.232;2023-02-11T11:04:39;11.30;78.00
40660;DHT22;26753;45.544;9.232;2023-02-11T11:10:06;12.50;76.70
40660;DHT22;26753;45.544;9.232;2023-02-11T11:22:48;11.30;73.50
40660;DHT22;26753;45.544;9.232;2023-02-11T11:27:46;12.00;73.10
40660;DHT22;26753;45.544;9.232;2023-02-11T11:33:23;11.10;73.10
40660;DHT22;26753;45.544;9.232;2023-02-11T11:38:47;14.00;74.30
40660;DHT22;26753;45.544;9.232;2023-02-11T11:41:16;12.40;73.10
40660;DHT22;26753;45.544;9.232;2023-02-11T11:49:34;13.00;71.50
40660;DHT22;26753;45.544;9.232;2023-02-11T11:54:30;13.40;71.20
40660;DHT22;26753;45.544;9.232;2023-02-11T11:59:51;13.50;72.50
40660;DHT22;26753;45.544;9.232;2023-02-11T12:07:54;14.20;73.40
40660;DHT22;26753;45.544;9.232;2023-02-11T12:15:48;13.60;71.90
40660;DHT22;26753;45.544;9.232;2023-02-11T12:30:17;13.80;71.20
40660;DHT22;26753;45.544;9.232;2023-02-11T12:45:38;16.50;65.60
40660;DHT22;26753;45.544;9.232;2023-02-11T12:56:22;32.00;44.70
40660;DHT22;26753;45.544;9.232;2023-02-11T12:58:54;32.90;40.80
40660;DHT22;26753;45.544;9.232;2023-02-11T13:01:37;34.20;39.90
40660;DHT22;26753;45.544;9.232;2023-02-11T13:07:18;36.40;37.30
40660;DHT22;26753;45.544;9.232;2023-02-11T13:10:29;37.50;36.20
40660;DHT22;26753;45.544;9.232;2023-02-11T13:12:44;38.10;35.80
40660;DHT22;26753;45.544;9.232;2023-02-11T13:15:29;38.20;34.80
40660;DHT22;26753;45.544;9.232;2023-02-11T13:18:16;38.60;34.60
40660;DHT22;26753;45.544;9.232;2023-02-11T13:25:58;40.30;32.90
40660;DHT22;26753;45.544;9.232;2023-02-11T13:34:52;41.20;33.00
40660;DHT22;26753;45.544;9.232;2023-02-11T13:42:56;39.10;30.30
40660;DHT22;26753;45.544;9.232;2023-02-11T13:45:31;40.20;31.70
40660;DHT22;26753;45.544;9.232;2023-02-11T13:48:13;41.60;31.50
40660;DHT22;26753;45.544;9.232;2023-02-11T13:51:01;41.30;30.90
40660;DHT22;26753;45.544;9.232;2023-02-11T14:05:33;42.10;30.90
40660;DHT22;26753;45.544;9.232;2023-02-11T14:08:21;42.20;29.70
40660;DHT22;26753;45.544;9.232;2023-02-11T14:11:39;42.30;30.00
40660;DHT22;26753;45.544;9.232;2023-02-11T14:16:20;40.60;29.10
40660;DHT22;26753;45.544;9.232;2023-02-11T14:21:13;42.60;29.40
40660;DHT22;26753;45.544;9.232;2023-02-11T14:23:40;44.10;29.70
40660;DHT22;26753;45.544;9.232;2023-02-11T14:28:43;40.80;28.40
40660;DHT22;26753;45.544;9.232;2023-02-11T14:31:13;40.20;28.70
40660;DHT22;26753;45.544;9.232;2023-02-11T14:36:36;39.90;28.60
40660;DHT22;26753;45.544;9.232;2023-02-11T14:41:43;42.70;28.70
40660;DHT22;26753;45.544;9.232;2023-02-11T14:44:14;42.60;28.20
40660;DHT22;26753;45.544;9.232;2023-02-11T14:46:47;43.10;28.70
40660;DHT22;26753;45.544;9.232;2023-02-11T14:49:24;43.50;28.30
40660;DHT22;26753;45.544;9.232;2023-02-11T14:51:52;41.60;27.80
40660;DHT22;26753;45.544;9.232;2023-02-11T14:54:20;40.10;28.30
40660;DHT22;26753;45.544;9.232;2023-02-11T14:57:04;38.90;27.80
40660;DHT22;26753;45.544;9.232;2023-02-11T14:59:30;38.00;28.30
40660;DHT22;26753;45.544;9.232;2023-02-11T15:01:55;38.50;28.20
40660;DHT22;26753;45.544;9.232;2023-02-11T15:06:46;39.10;28.30
40660;DHT22;26753;45.544;9.232;2023-02-11T15:09:16;40.10;28.50
40660;DHT22;26753;45.544;9.232;2023-02-11T15:11:44;36.30;28.20
40660;DHT22;26753;45.544;9.232;2023-02-11T15:14:56;32.90;28.70
40660;DHT22;26753;45.544;9.232;2023-02-11T15:17:03;29.90;29.10
40660;DHT22;26753;45.544;9.232;2023-02-11T15:19:34;27.20;30.00
40660;DHT22;26753;45.544;9.232;2023-02-11T15:22:14;25.00;30.60
40660;DHT22;26753;45.544;9.232;2023-02-11T15:24:42;22.80;32.00
40660;DHT22;26753;45.544;9.232;2023-02-11T15:27:12;21.60;33.20
40660;DHT22;26753;45.544;9.232;2023-02-11T15:29:43;20.60;34.30
40660;DHT22;26753;45.544;9.232;2023-02-11T15:32:17;19.90;34.70
40660;DHT22;26753;45.544;9.232;2023-02-11T15:37:30;19.20;35.60
40660;DHT22;26753;45.544;9.232;2023-02-11T15:40:06;18.70;35.90
40660;DHT22;26753;45.544;9.232;2023-02-11T15:42:32;18.70;36.30
40660;DHT22;26753;45.544;9.232;2023-02-11T15:47:48;18.00;36.80
40660;DHT22;26753;45.544;9.232;2023-02-11T15:50:39;17.90;37.20
40660;DHT22;26753;45.544;9.232;2023-02-11T15:55:43;17.70;37.50
40660;DHT22;26753;45.544;9.232;2023-02-11T15:58:34;17.50;37.90
40660;DHT22;26753;45.544;9.232;2023-02-11T16:01:06;17.30;38.10
40660;DHT22;26753;45.544;9.232;2023-02-11T16:03:32;17.20;38.40
40660;DHT22;26753;45.544;9.232;2023-02-11T16:14:35;15.40;40.70
40660;DHT22;26753;45.544;9.232;2023-02-11T16:19:51;15.00;41.90
40660;DHT22;26753;45.544;9.232;2023-02-11T16:25:22;14.10;42.80
40660;DHT22;26753;45.544;9.232;2023-02-11T16:27:56;14.10;42.80
40660;DHT22;26753;45.544;9.232;2023-02-11T16:32:57;13.80;43.50
40660;DHT22;26753;45.544;9.232;2023-02-11T16:35:23;14.40;43.70
40660;DHT22;26753;45.544;9.232;2023-02-11T16:37:51;14.30;43.80
40660;DHT22;26753;45.544;9.232;2023-02-11T16:43:27;13.20;43.90
40660;DHT22;26753;45.544;9.232;2023-02-11T16:45:52;13.80;44.90
40660;DHT22;26753;45.544;9.232;2023-02-11T16:48:18;13.40;45.10
40660;DHT22;26753;45.544;9.232;2023-02-11T16:50:47;13.40;45.50
40660;DHT22;26753;45.544;9.232;2023-02-11T16:53:17;14.60;46.30
40660;DHT22;26753;45.544;9.232;2023-02-11T16:55:47;12.00;45.50
40660;DHT22;26753;45.544;9.232;2023-02-11T16:58:16;12.30;45.50
40660;DHT22;26753;45.544;9.232;2023-02-11T17:00:42;13.50;46.30
40660;DHT22;26753;45.544;9.232;2023-02-11T17:03:14;13.50;45.90
40660;DHT22;26753;45.544;9.232;2023-02-11T17:05:44;12.60;46.30
40660;DHT22;26753;45.544;9.232;2023-02-11T17:10:49;13.20;46.50
40660;DHT22;26753;45.544;9.232;2023-02-11T17:13:15;12.30;45.70
40660;DHT22;26753;45.544;9.232;2023-02-11T17:15:43;12.10;45.50
40660;DHT22;26753;45.544;9.232;2023-02-11T17:18:11;11.90;45.80
40660;DHT22;26753;45.544;9.232;2023-02-11T17:20:37;13.70;46.90
40660;DHT22;26753;45.544;9.232;2023-02-11T17:23:02;12.90;46.70
40660;DHT22;26753;45.544;9.232;2023-02-11T17:25:28;12.80;47.10
40660;DHT22;26753;45.544;9.232;2023-02-11T17:27:54;11.50;47.00
40660;DHT22;26753;45.544;9.232;2023-02-11T17:30:19;12.50;47.50
40660;DHT22;26753;45.544;9.232;2023-02-11T17:32:47;11.80;47.60
40660;DHT22;26753;45.544;9.232;2023-02-11T17:35:13;12.40;48.10
40660;DHT22;26753;45.544;9.232;2023-02-11T17:37:39;12.60;48.40
40660;DHT22;26753;45.544;9.232;2023-02-11T17:40:05;12.00;48.80
40660;DHT22;26753;45.544;9.232;2023-02-11T17:42:31;14.20;50.50
40660;DHT22;26753;45.544;9.232;2023-02-11T17:44:57;11.60;49.60
40660;DHT22;26753;45.544;9.232;2023-02-11T17:47:23;10.60;50.20
40660;DHT22;26753;45.544;9.232;2023-02-11T17:49:51;13.50;52.10
40660;DHT22;26753;45.544;9.232;2023-02-11T17:52:17;10.90;50.90
40660;DHT22;26753;45.544;9.232;2023-02-11T17:54:43;12.50;51.90
40660;DHT22;26753;45.544;9.232;2023-02-11T17:57:09;12.70;52.90
40660;DHT22;26753;45.544;9.232;2023-02-11T17:59:37;12.10;53.30
40660;DHT22;26753;45.544;9.232;2023-02-11T18:02:03;11.30;52.70
40660;DHT22;26753;45.544;9.232;2023-02-11T18:04:28;11.30;53.00
40660;DHT22;26753;45.544;9.232;2023-02-11T18:06:54;10.10;52.60
40660;DHT22;26753;45.544;9.232;2023-02-11T18:09:20;10.40;53.30
40660;DHT22;26753;45.544;9.232;2023-02-11T18:11:48;10.50;53.70
40660;DHT22;26753;45.544;9.232;2023-02-11T18:14:17;10.70;54.10
40660;DHT22;26753;45.544;9.232;2023-02-11T18:16:42;12.80;55.30
40660;DHT22;26753;45.544;9.232;2023-02-11T18:19:12;10.90;54.30
40660;DHT22;26753;45.544;9.232;2023-02-11T18:21:37;10.20;54.20
40660;DHT22;26753;45.544;9.232;2023-02-11T18:24:03;10.10;54.50
40660;DHT22;26753;45.544;9.232;2023-02-11T18:26:29;12.00;55.80
40660;DHT22;26753;45.544;9.232;2023-02-11T18:28:56;12.30;56.40
40660;DHT22;26753;45.544;9.232;2023-02-11T18:31:31;11.30;56.60
40660;DHT22;26753;45.544;9.232;2023-02-11T18:33:56;10.10;56.30
40660;DHT22;26753;45.544;9.232;2023-02-11T18:36:22;10.80;57.10
40660;DHT22;26753;45.544;9.232;2023-02-11T18:38:47;10.00;57.20
40660;DHT22;26753;45.544;9.232;2023-02-11T18:43:39;10.10;57.20
40660;DHT22;26753;45.544;9.232;2023-02-11T18:46:05;9.30;57.40
40660;DHT22;26753;45.544;9.232;2023-02-11T18:48:31;9.80;58.40
40660;DHT22;26753;45.544;9.232;2023-02-11T18:51:00;8.70;58.30
40660;DHT22;26753;45.544;9.232;2023-02-11T18:53:34;10.30;59.60
40660;DHT22;26753;45.544;9.232;2023-02-11T18:56:00;8.90;58.60
40660;DHT22;26753;45.544;9.232;2023-02-11T19:03:22;10.80;60.00
40660;DHT22;26753;45.544;9.232;2023-02-11T19:05:48;11.20;60.30
40660;DHT22;26753;45.544;9.232;2023-02-11T19:08:14;11.40;61.00
40660;DHT22;26753;45.544;9.232;2023-02-11T19:10:40;8.80;60.10
40660;DHT22;26753;45.544;9.232;2023-02-11T19:13:06;11.30;62.30
40660;DHT22;26753;45.544;9.232;2023-02-11T19:15:32;8.70;60.30
40660;DHT22;26753;45.544;9.232;2023-02-11T19:20:23;9.80;62.40
40660;DHT22;26753;45.544;9.232;2023-02-11T19:22:49;8.40;62.50
40660;DHT22;26753;45.544;9.232;2023-02-11T19:25:14;10.20;64.00
40660;DHT22;26753;45.544;9.232;2023-02-11T19:27:40;10.30;64.50
40660;DHT22;26753;45.544;9.232;2023-02-11T19:30:06;10.60;65.60
40660;DHT22;26753;45.544;9.232;2023-02-11T19:32:34;9.70;65.10
40660;DHT22;26753;45.544;9.232;2023-02-11T19:35:00;9.10;64.40
40660;DHT22;26753;45.544;9.232;2023-02-11T19:37:25;7.20;62.90
40660;DHT22;26753;45.544;9.232;2023-02-11T19:39:51;8.80;63.00
40660;DHT22;26753;45.544;9.232;2023-02-11T19:42:19;7.00;61.40
40660;DHT22;26753;45.544;9.232;2023-02-11T19:44:45;12.00;63.10
40660;DHT22;26753;45.544;9.232;2023-02-11T19:47:10;10.30;61.70
40660;DHT22;26753;45.544;9.232;2023-02-11T19:49:37;10.60;63.10
40660;DHT22;26753;45.544;9.232;2023-02-11T19:52:03;7.40;62.20
40660;DHT22;26753;45.544;9.232;2023-02-11T19:54:29;9.60;64.10
40660;DHT22;26753;45.544;9.232;2023-02-11T19:56:55;9.50;64.80
40660;DHT22;26753;45.544;9.232;2023-02-11T19:59:21;7.30;64.40
40660;DHT22;26753;45.544;9.232;2023-02-11T20:01:47;10.90;67.10
40660;DHT22;26753;45.544;9.232;2023-02-11T20:04:14;10.10;66.60
40660;DHT22;26753;45.544;9.232;2023-02-11T20:09:06;7.50;66.50
40660;DHT22;26753;45.544;9.232;2023-02-11T20:11:34;9.10;66.60
40660;DHT22;26753;45.544;9.232;2023-02-11T20:14:00;8.60;65.20
40660;DHT22;26753;45.544;9.232;2023-02-11T20:18:52;9.10;64.70
40660;DHT22;26753;45.544;9.232;2023-02-11T20:21:21;9.10;65.00
40660;DHT22;26753;45.544;9.232;2023-02-11T20:28:39;8.10;62.50
40660;DHT22;26753;45.544;9.232;2023-02-11T20:31:05;7.80;63.10
40660;DHT22;26753;45.544;9.232;2023-02-11T20:33:31;8.90;64.40
40660;DHT22;26753;45.544;9.232;2023-02-11T20:35:57;11.80;66.50
40660;DHT22;26753;45.544;9.232;2023-02-11T20:38:23;9.20;66.00
40660;DHT22;26753;45.544;9.232;2023-02-11T20:40:49;8.40;66.10
40660;DHT22;26753;45.544;9.232;2023-02-11T20:43:15;7.50;66.00
40660;DHT22;26753;45.544;9.232;2023-02-11T20:45:40;8.70;66.80
40660;DHT22;26753;45.544;9.232;2023-02-11T20:50:32;8.20;67.60
40660;DHT22;26753;45.544;9.232;2023-02-11T20:52:58;6.40;67.00
40660;DHT22;26753;45.544;9.232;2023-02-11T21:00:19;10.20;70.70
40660;DHT22;26753;45.544;9.232;2023-02-11T21:05:10;7.60;69.90
40660;DHT22;26753;45.544;9.232;2023-02-11T21:07:39;9.50;71.10
40660;DHT22;26753;45.544;9.232;2023-02-11T21:12:33;5.80;69.10
40660;DHT22;26753;45.544;9.232;2023-02-11T21:14:59;9.00;71.70
40660;DHT22;26753;45.544;9.232;2023-02-11T21:17:32;8.30;70.50
40660;DHT22;26753;45.544;9.232;2023-02-11T21:19:58;7.40;69.70
40660;DHT22;26753;45.544;9.232;2023-02-11T21:24:50;8.50;71.50
40660;DHT22;26753;45.544;9.232;2023-02-11T21:27:19;8.20;71.20
40660;DHT22;26753;45.544;9.232;2023-02-11T21:29:44;7.30;70.10
40660;DHT22;26753;45.544;9.232;2023-02-11T21:34:37;10.00;72.40
40660;DHT22;26753;45.544;9.232;2023-02-11T21:37:03;5.70;71.20
40660;DHT22;26753;45.544;9.232;2023-02-11T21:51:39;9.40;74.50
